Time;durP1;ratioP1;P1;durP2;ratioP2;P2;SDS_P1;SDS_P2;PMS_P1;PMS_P2;Temp;Humidity;BMP_temperature;BMP_pressure;BME280_temperature;BME280_humidity;BME280_pressure;Samples;Min_cycle;Max_cycle;Signal;HPM_P1;HPM_P2
2021/07/31 00:01:08;;;;;;;1999.90;999.90;;;;;;;21.80;83.78;95186.47;5046389;27;20713;-67
2021/07/31 00:03:36;;;;;;;1999.90;999.90;;;;;;;21.86;83.38;95184.97;5046713;27;20198;-66
2021/07/31 00:06:04;;;;;;;1999.90;999.90;;;;;;;21.56;85.18;95187.13;5046111;28;20217;-66
2021/07/31 00:08:32;;;;;;;1999.90;999.90;;;;;;;21.64;84.67;95188.66;5046415;28;20197;-67
2021/07/31 00:10:59;;;;;;;1999.90;999.90;;;;;;;21.66;84.65;95189.06;5055938;28;20197;-67
2021/07/31 00:13:28;;;;;;;1999.90;999.90;;;;;;;21.74;84.50;95180.00;5130945;27;20225;-68
2021/07/31 00:15:56;;;;;;;1999.90;999.90;;;;;;;21.69;85.00;95183.00;5130531;28;20198;-68
2021/07/31 00:18:23;;;;;;;1999.90;999.90;;;;;;;21.66;85.18;95181.88;5130594;28;20194;-68
2021/07/31 00:20:50;;;;;;;1999.90;999.90;;;;;;;21.71;85.45;95186.06;5084271;27;20704;-68
2021/07/31 00:23:17;;;;;;;1999.90;999.90;;;;;;;21.72;85.07;95182.25;5046532;28;20215;-66
2021/07/31 00:25:44;;;;;;;1999.90;999.90;;;;;;;21.63;85.30;95187.13;5045915;28;20723;-68
2021/07/31 00:28:11;;;;;;;1999.90;999.90;;;;;;;21.59;85.28;95189.00;5046013;28;20648;-67
2021/07/31 00:30:40;;;;;;;1999.90;999.90;;;;;;;21.37;86.18;95194.19;5046796;28;20280;-67
2021/07/31 00:33:07;;;;;;;1999.90;999.90;;;;;;;21.48;85.34;95195.00;5046142;28;20704;-68
2021/07/31 00:35:34;;;;;;;1999.90;999.90;;;;;;;21.47;85.55;95196.13;5046366;28;20197;-67
2021/07/31 00:38:01;;;;;;;1999.90;999.90;;;;;;;21.36;85.90;95189.28;5046198;28;20197;-68
2021/07/31 00:40:28;;;;;;;1999.90;999.90;;;;;;;21.33;86.13;95201.34;5046418;28;20212;-67
2021/07/31 00:42:57;;;;;;;1999.90;999.90;;;;;;;21.17;86.69;95200.84;5045979;28;20685;-67
2021/07/31 00:45:24;;;;;;;1999.90;999.90;;;;;;;21.12;87.16;95189.84;5048793;28;20681;-67
2021/07/31 00:47:53;;;;;;;1999.90;999.90;;;;;;;21.16;87.13;95190.66;5050030;28;20197;-67
2021/07/31 00:50:20;;;;;;;1999.90;999.90;;;;;;;21.23;87.12;95188.81;5049620;28;20311;-68
2021/07/31 00:52:48;;;;;;;1999.90;999.90;;;;;;;21.24;87.32;95198.25;5049771;28;20213;-67
2021/07/31 00:55:15;;;;;;;1999.90;999.90;;;;;;;21.29;86.84;95192.63;5049531;28;20205;-65
2021/07/31 00:57:46;;;;;;;1999.90;999.90;;;;;;;21.31;86.15;95185.09;5049061;28;20202;-66
2021/07/31 01:00:14;;;;;;;1999.90;999.90;;;;;;;21.26;85.79;95180.16;5049168;28;20273;-68
2021/07/31 01:02:41;;;;;;;1999.90;999.90;;;;;;;21.26;85.59;95185.44;5049531;28;20198;-67
2021/07/31 01:05:11;;;;;;;1999.90;999.90;;;;;;;21.23;85.02;95183.53;5048927;28;20217;-68
2021/07/31 01:07:39;;;;;;;1999.90;999.90;;;;;;;21.00;86.64;95175.81;5048846;28;20239;-67
2021/07/31 01:10:07;;;;;;;1999.90;999.90;;;;;;;21.03;86.34;95183.00;5049147;28;20202;-66
2021/07/31 01:12:36;;;;;;;1999.90;999.90;;;;;;;21.01;86.24;95184.50;5049390;27;20198;-67
2021/07/31 01:15:03;;;;;;;1999.90;999.90;;;;;;;20.95;86.88;95178.78;5049136;28;20197;-67
2021/07/31 01:17:30;;;;;;;1999.90;999.90;;;;;;;21.00;86.87;95172.41;5049238;28;20768;-67
2021/07/31 01:19:58;;;;;;;1999.90;999.90;;;;;;;21.05;86.76;95179.97;5048952;28;20204;-68
2021/07/31 01:22:27;;;;;;;1999.90;999.90;;;;;;;21.07;86.86;95176.97;5048441;28;20229;-67
2021/07/31 01:24:54;;;;;;;1999.90;999.90;;;;;;;20.97;86.80;95178.44;5048526;28;20262;-68
2021/07/31 01:27:21;;;;;;;1999.90;999.90;;;;;;;20.71;89.28;95181.25;5048753;27;20216;-68
2021/07/31 01:29:49;;;;;;;1999.90;999.90;;;;;;;20.49;91.99;95180.28;5048714;28;20197;-68
2021/07/31 01:32:16;;;;;;;1999.90;999.90;;;;;;;20.49;91.61;95177.66;5049228;28;20211;-67
2021/07/31 01:34:43;;;;;;;1999.90;999.90;;;;;;;20.47;91.31;95178.00;5049323;28;20669;-66
2021/07/31 01:37:10;;;;;;;1999.90;999.90;;;;;;;20.43;92.08;95176.47;5049216;28;20197;-67
2021/07/31 01:39:39;;;;;;;1999.90;999.90;;;;;;;20.43;92.82;95163.25;5048860;27;20193;-67
2021/07/31 01:42:07;;;;;;;1999.90;999.90;;;;;;;20.40;93.51;95166.63;5049025;27;20193;-66
2021/07/31 01:44:35;;;;;;;1999.90;999.90;;;;;;;20.38;94.39;95164.34;5049175;28;20250;-66
2021/07/31 01:47:02;;;;;;;1999.90;999.90;;;;;;;20.36;94.82;95166.59;5048813;28;20225;-67
2021/07/31 01:49:29;;;;;;;1999.90;999.90;;;;;;;20.39;94.73;95176.44;5048784;27;20201;-67
2021/07/31 01:51:56;;;;;;;1999.90;999.90;;;;;;;20.40;94.51;95172.66;5048617;28;20584;-68
2021/07/31 01:54:24;;;;;;;1999.90;999.90;;;;;;;20.38;94.71;95169.63;5048646;28;20292;-67
2021/07/31 01:56:52;;;;;;;1999.90;999.90;;;;;;;20.33;93.86;95167.31;5048289;28;20745;-68
2021/07/31 01:59:20;;;;;;;1999.90;999.90;;;;;;;20.24;93.61;95166.81;5048714;28;20205;-69
2021/07/31 02:01:47;;;;;;;1999.90;999.90;;;;;;;20.18;93.80;95163.75;5046151;27;20384;-70
2021/07/31 02:04:14;;;;;;;1999.90;999.90;;;;;;;20.04;93.58;95168.13;5046694;27;20288;-66
2021/07/31 02:06:41;;;;;;;1999.90;999.90;;;;;;;19.93;93.34;95169.88;5047740;27;20229;-67
2021/07/31 02:09:08;;;;;;;1999.90;999.90;;;;;;;19.90;93.99;95174.03;5047254;27;20204;-69
2021/07/31 02:11:35;;;;;;;1999.90;999.90;;;;;;;19.89;94.40;95167.22;5047107;27;20718;-68
2021/07/31 02:14:04;;;;;;;1999.90;999.90;;;;;;;19.91;94.65;95172.16;5048526;28;20205;-68
2021/07/31 02:16:31;;;;;;;1999.90;999.90;;;;;;;19.95;95.36;95178.22;5048134;28;20253;-69
2021/07/31 02:18:58;;;;;;;1999.90;999.90;;;;;;;20.02;96.12;95173.03;5048417;28;20201;-73
2021/07/31 02:21:25;;;;;;;1999.90;999.90;;;;;;;20.07;96.62;95180.63;5048075;28;20321;-71
2021/07/31 02:23:52;;;;;;;1999.90;999.90;;;;;;;20.19;96.34;95183.00;5048010;28;20201;-69
2021/07/31 02:26:20;;;;;;;1999.90;999.90;;;;;;;20.26;96.07;95177.03;5048113;28;20231;-68
2021/07/31 02:28:47;;;;;;;1999.90;999.90;;;;;;;20.18;96.04;95176.94;5048352;28;20201;-68
2021/07/31 02:31:15;;;;;;;1999.90;999.90;;;;;;;20.08;96.38;95180.25;5047766;28;20193;-67
2021/07/31 02:33:42;;;;;;;1999.90;999.90;;;;;;;20.04;97.06;95186.59;5051822;28;20204;-68
2021/07/31 02:36:09;;;;;;;1999.90;999.90;;;;;;;20.05;97.19;95182.84;5047999;28;20213;-69
2021/07/31 02:38:38;;;;;;;1999.90;999.90;;;;;;;20.17;96.16;95191.25;5047866;28;20193;-69
2021/07/31 02:41:10;;;;;;;1999.90;999.90;;;;;;;20.06;96.50;95179.84;5048019;28;20277;-68
2021/07/31 02:43:38;;;;;;;1999.90;999.90;;;;;;;20.10;96.46;95182.53;5043591;28;20198;-68
2021/07/31 02:46:05;;;;;;;1999.90;999.90;;;;;;;19.92;97.16;95184.97;5028464;28;20201;-69
2021/07/31 02:48:36;;;;;;;1999.90;999.90;;;;;;;20.02;96.69;95192.25;5040930;28;20201;-69
2021/07/31 02:51:04;;;;;;;1999.90;999.90;;;;;;;20.03;96.68;95193.00;5047679;28;20197;-68
2021/07/31 02:53:32;;;;;;;1999.90;999.90;;;;;;;20.01;96.96;95192.59;5047983;28;20262;-66
2021/07/31 02:55:59;;;;;;;1999.90;999.90;;;;;;;20.04;96.56;95189.22;5041290;28;20296;-68
2021/07/31 02:58:26;;;;;;;1999.90;999.90;;;;;;;20.11;96.58;95189.31;5028147;28;20872;-68
2021/07/31 03:00:53;;;;;;;1999.90;999.90;;;;;;;20.19;95.56;95191.66;5027837;28;20202;-68
2021/07/31 03:03:20;;;;;;;1999.90;999.90;;;;;;;20.16;95.92;95189.75;5027629;28;20293;-69
2021/07/31 03:05:55;;;;;;;1999.90;999.90;;;;;;;20.22;96.02;95194.72;5028076;28;20210;-68
2021/07/31 03:08:22;;;;;;;1999.90;999.90;;;;;;;20.16;96.11;95194.28;5045854;28;20216;-68
2021/07/31 03:10:54;;;;;;;1999.90;999.90;;;;;;;20.14;95.94;95201.78;5047288;28;20197;-68
2021/07/31 03:13:22;;;;;;;1999.90;999.90;;;;;;;19.89;96.10;95195.47;5047640;28;20250;-68
2021/07/31 03:15:49;;;;;;;1999.90;999.90;;;;;;;19.76;96.99;95193.09;5047400;28;20257;-69
2021/07/31 03:18:16;;;;;;;1999.90;999.90;;;;;;;19.77;97.25;95193.84;5047347;28;20254;-68
2021/07/31 03:20:47;;;;;;;1999.90;999.90;;;;;;;19.83;97.18;95192.38;5047076;28;20542;-68
2021/07/31 03:23:18;;;;;;;1999.90;999.90;;;;;;;19.81;97.30;95199.91;5038411;28;20686;-67
2021/07/31 03:25:45;;;;;;;1999.90;999.90;;;;;;;19.84;97.32;95199.19;5047489;28;20185;-67
2021/07/31 03:28:12;;;;;;;1999.90;999.90;;;;;;;19.88;97.62;95205.25;5047299;28;20577;-68
2021/07/31 03:30:41;;;;;;;1999.90;999.90;;;;;;;19.94;97.31;95200.44;5048055;28;20205;-67
2021/07/31 03:33:09;;;;;;;1999.90;999.90;;;;;;;20.04;96.96;95207.69;5046649;28;20204;-66
2021/07/31 03:35:36;;;;;;;1999.90;999.90;;;;;;;19.91;96.34;95204.56;5047755;28;20440;-76
2021/07/31 03:38:04;;;;;;;1999.90;999.90;;;;;;;19.82;95.92;95198.03;5047738;28;20242;-76
2021/07/31 03:40:32;;;;;;;1999.90;999.90;;;;;;;19.59;96.38;95204.16;5047728;28;20193;-70
2021/07/31 03:43:00;;;;;;;1999.90;999.90;;;;;;;19.38;97.75;95198.56;5047427;28;20205;-69
2021/07/31 03:45:27;;;;;;;1999.90;999.90;;;;;;;19.55;97.10;95194.69;5047130;28;20210;-70
2021/07/31 03:47:54;;;;;;;1999.90;999.90;;;;;;;19.53;97.57;95196.91;5046895;28;20297;-70
2021/07/31 03:50:21;;;;;;;1999.90;999.90;;;;;;;19.60;98.00;95194.38;5046759;28;20526;-70
2021/07/31 03:52:49;;;;;;;1999.90;999.90;;;;;;;19.75;97.53;95201.34;5047079;28;20204;-66
2021/07/31 03:55:16;;;;;;;1999.90;999.90;;;;;;;19.83;97.50;95210.84;5046720;28;20203;-68
2021/07/31 03:57:44;;;;;;;1999.90;999.90;;;;;;;19.88;97.47;95201.84;5042865;27;20201;-71
2021/07/31 04:00:12;;;;;;;1999.90;999.90;;;;;;;19.97;97.08;95215.56;5043439;27;20200;-69
2021/07/31 04:02:40;;;;;;;1999.90;999.90;;;;;;;20.11;96.91;95218.34;5045006;27;20682;-68
2021/07/31 04:05:07;;;;;;;1999.90;999.90;;;;;;;20.07;96.87;95215.69;5046838;27;20200;-65
2021/07/31 04:07:35;;;;;;;1999.90;999.90;;;;;;;20.01;97.74;95218.97;5047091;27;20381;-68
2021/07/31 04:10:02;;;;;;;1999.90;999.90;;;;;;;19.98;98.60;95223.09;5048700;28;20201;-67
2021/07/31 04:12:30;;;;;;;1999.90;999.90;;;;;;;19.91;99.15;95228.28;5046025;28;20584;-67
2021/07/31 04:14:59;;;;;;;1999.90;999.90;;;;;;;20.01;98.68;95225.03;5045503;28;20235;-67
2021/07/31 04:17:26;;;;;;;1999.90;999.90;;;;;;;20.17;98.33;95228.19;5043529;28;20208;-68
2021/07/31 04:19:53;;;;;;;1999.90;999.90;;;;;;;20.33;98.36;95225.38;5050665;28;20676;-67
2021/07/31 04:22:20;;;;;;;1999.90;999.90;;;;;;;20.60;97.15;95228.69;5050282;28;20232;-68
2021/07/31 04:24:48;;;;;;;1999.90;999.90;;;;;;;20.58;97.15;95236.19;5050603;28;20216;-68
2021/07/31 04:27:15;;;;;;;1999.90;999.90;;;;;;;20.64;97.16;95242.66;5050645;28;20229;-69
2021/07/31 04:29:42;;;;;;;1999.90;999.90;;;;;;;20.72;97.37;95238.97;5051577;28;20684;-67
2021/07/31 04:32:11;;;;;;;1999.90;999.90;;;;;;;20.80;96.66;95242.44;5053162;28;20286;-66
2021/07/31 04:34:38;;;;;;;1999.90;999.90;;;;;;;20.87;97.05;95245.88;5057168;28;20196;-68
2021/07/31 04:37:05;;;;;;;1999.90;999.90;;;;;;;21.20;96.28;95254.88;5033475;28;20206;-67
2021/07/31 04:39:33;;;;;;;1999.90;999.90;;;;;;;21.54;94.58;95252.81;5033042;28;20254;-67
2021/07/31 04:42:00;;;;;;;1999.90;999.90;;;;;;;21.82;92.86;95255.63;5032934;28;20201;-68
2021/07/31 04:44:28;;;;;;;1999.90;999.90;;;;;;;22.13;91.48;95259.56;5033259;28;20624;-68
2021/07/31 04:46:55;;;;;;;1999.90;999.90;;;;;;;22.30;91.29;95257.00;5033010;28;20229;-69
2021/07/31 04:49:23;;;;;;;1999.90;999.90;;;;;;;22.53;89.71;95259.31;5033172;28;20201;-68
2021/07/31 04:51:50;;;;;;;1999.90;999.90;;;;;;;22.54;89.95;95260.84;5032904;28;20254;-67
2021/07/31 04:54:18;;;;;;;1999.90;999.90;;;;;;;22.66;89.52;95262.38;5032665;28;20207;-65
2021/07/31 04:56:45;;;;;;;1999.90;999.90;;;;;;;22.71;89.29;95265.44;5058077;27;20206;-66
2021/07/31 04:59:12;;;;;;;1999.90;999.90;;;;;;;22.95;88.43;95263.97;5052757;28;20280;-67
2021/07/31 05:01:39;;;;;;;1999.90;999.90;;;;;;;23.23;87.57;95270.41;5052568;28;20201;-66
2021/07/31 05:04:06;;;;;;;1999.90;999.90;;;;;;;23.42;85.80;95270.00;5143045;27;20205;-66
2021/07/31 05:06:35;;;;;;;1999.90;999.90;;;;;;;23.62;83.15;95273.78;5158215;27;20266;-66
2021/07/31 05:09:05;;;;;;;1999.90;999.90;;;;;;;23.63;82.51;95274.56;5157492;27;20225;-66
2021/07/31 05:11:32;;;;;;;1999.90;999.90;;;;;;;23.68;83.45;95274.94;5121192;27;20745;-67
2021/07/31 05:13:59;;;;;;;1999.90;999.90;;;;;;;23.85;82.57;95270.72;5052693;28;20280;-67
2021/07/31 05:16:28;;;;;;;1999.90;999.90;;;;;;;24.08;81.81;95267.59;5130592;27;20931;-64
2021/07/31 05:18:55;;;;;;;1999.90;999.90;;;;;;;24.35;80.49;95271.34;5136745;27;20191;-68
2021/07/31 05:21:23;;;;;;;1999.90;999.90;;;;;;;24.49;79.82;95276.56;5136686;27;20244;-68
2021/07/31 05:23:51;;;;;;;1999.90;999.90;;;;;;;24.66;78.33;95265.06;5136735;27;20875;-69
2021/07/31 05:26:19;;;;;;;1999.90;999.90;;;;;;;24.53;77.37;95272.00;5137115;27;20198;-68
2021/07/31 05:28:46;;;;;;;1999.90;999.90;;;;;;;24.74;76.42;95271.13;5136698;27;20222;-68
2021/07/31 05:31:20;;;;;;;1999.90;999.90;;;;;;;24.58;76.86;95274.25;5133015;27;20662;-67
2021/07/31 05:33:47;;;;;;;1999.90;999.90;;;;;;;24.94;75.24;95288.09;5133530;27;20240;-67
2021/07/31 05:36:15;;;;;;;1999.90;999.90;;;;;;;25.02;76.59;95292.22;5133665;27;20198;-68
2021/07/31 05:38:42;;;;;;;1999.90;999.90;;;;;;;25.07;77.17;95286.50;5133543;27;20194;-68
2021/07/31 05:41:15;;;;;;;1999.90;999.90;;;;;;;25.07;77.10;95288.38;5133234;27;20756;-68
2021/07/31 05:43:43;;;;;;;1999.90;999.90;;;;;;;25.08;77.71;95290.66;5133602;27;20187;-68
2021/07/31 05:46:10;;;;;;;1999.90;999.90;;;;;;;25.10;76.86;95290.28;5133429;27;20670;-69
2021/07/31 05:48:37;;;;;;;1999.90;999.90;;;;;;;25.34;76.42;95289.34;5132789;27;20232;-68
2021/07/31 05:51:05;;;;;;;1999.90;999.90;;;;;;;25.59;76.27;95292.56;5136517;27;20201;-68
2021/07/31 05:53:32;;;;;;;1999.90;999.90;;;;;;;25.74;74.16;95287.84;5153836;27;20205;-68
2021/07/31 05:55:59;;;;;;;1999.90;999.90;;;;;;;25.80;74.43;95285.53;5153796;27;20648;-68
2021/07/31 05:58:28;;;;;;;1999.90;999.90;;;;;;;26.14;72.48;95289.72;5154108;27;20225;-69
2021/07/31 06:00:56;;;;;;;1999.90;999.90;;;;;;;26.10;72.56;95282.91;5154082;27;20200;-68
2021/07/31 06:03:23;;;;;;;1999.90;999.90;;;;;;;26.39;71.67;95284.13;5153919;27;20197;-68
2021/07/31 06:05:50;;;;;;;1999.90;999.90;;;;;;;26.35;71.17;95283.38;5153813;27;20205;-67
2021/07/31 06:08:17;;;;;;;1999.90;999.90;;;;;;;26.27;70.08;95286.53;5153573;27;20838;-66
2021/07/31 06:10:44;;;;;;;1999.90;999.90;;;;;;;26.60;69.26;95277.72;5153590;27;20198;-67
2021/07/31 06:13:11;;;;;;;1999.90;999.90;;;;;;;26.75;67.71;95280.97;5153255;27;20198;-65
2021/07/31 06:15:42;;;;;;;1999.90;999.90;;;;;;;26.98;67.00;95279.13;5153450;27;20300;-67
2021/07/31 06:18:09;;;;;;;1999.90;999.90;;;;;;;27.05;67.01;95280.91;5153644;27;20186;-67
2021/07/31 06:20:37;;;;;;;1999.90;999.90;;;;;;;26.72;68.77;95276.44;5153716;27;20195;-65
2021/07/31 06:23:04;;;;;;;1999.90;999.90;;;;;;;26.96;67.67;95280.69;5111935;28;20955;-67
2021/07/31 06:25:31;;;;;;;1999.90;999.90;;;;;;;27.21;66.18;95282.97;5112062;28;20585;-68
2021/07/31 06:27:58;;;;;;;1999.90;999.90;;;;;;;27.33;65.70;95277.06;5077993;28;20220;-68
2021/07/31 06:30:25;;;;;;;1999.90;999.90;;;;;;;27.39;64.09;95278.88;5028496;28;20209;-67
2021/07/31 06:32:54;;;;;;;1999.90;999.90;;;;;;;27.52;63.94;95280.97;5028591;28;20202;-68
2021/07/31 06:35:21;;;;;;;1999.90;999.90;;;;;;;27.54;63.76;95273.31;5028574;28;20197;-67
2021/07/31 06:37:49;;;;;;;1999.90;999.90;;;;;;;27.81;62.56;95277.41;5028157;28;20233;-69
2021/07/31 06:40:16;;;;;;;1999.90;999.90;;;;;;;27.92;62.27;95277.22;5028833;28;20198;-68
2021/07/31 06:42:43;;;;;;;1999.90;999.90;;;;;;;28.01;61.30;95274.75;5027078;28;20633;-69
2021/07/31 06:45:11;;;;;;;1999.90;999.90;;;;;;;28.05;60.89;95277.34;5027592;28;20202;-66
2021/07/31 06:47:38;;;;;;;1999.90;999.90;;;;;;;27.71;62.78;95267.66;5027795;28;20226;-67
2021/07/31 06:50:10;;;;;;;1999.90;999.90;;;;;;;27.82;64.45;95272.81;5028333;28;20210;-68
2021/07/31 06:52:38;;;;;;;1999.90;999.90;;;;;;;28.10;62.66;95272.25;5027793;28;20186;-69
2021/07/31 06:55:06;;;;;;;1999.90;999.90;;;;;;;28.36;60.62;95269.88;5027884;28;20206;-67
2021/07/31 06:57:33;;;;;;;1999.90;999.90;;;;;;;28.38;60.79;95259.53;5027823;28;20209;-68
2021/07/31 07:00:00;;;;;;;1999.90;999.90;;;;;;;28.52;60.78;95269.94;5027714;28;20202;-69
2021/07/31 07:02:27;;;;;;;1999.90;999.90;;;;;;;28.53;59.18;95266.84;5028218;28;20197;-67
2021/07/31 07:04:54;;;;;;;1999.90;999.90;;;;;;;28.78;58.35;95265.59;5027827;28;20201;-69
2021/07/31 07:07:23;;;;;;;1999.90;999.90;;;;;;;28.70;59.39;95267.63;5028345;28;20194;-68
2021/07/31 07:09:50;;;;;;;1999.90;999.90;;;;;;;28.66;59.52;95256.25;5027943;28;20666;-68
2021/07/31 07:12:17;;;;;;;1999.90;999.90;;;;;;;28.76;58.68;95255.28;5015140;28;20203;-68
2021/07/31 07:14:44;;;;;;;1999.90;999.90;;;;;;;28.75;59.76;95261.06;5008227;28;20202;-69
2021/07/31 07:17:11;;;;;;;1999.90;999.90;;;;;;;29.01;58.78;95263.50;5008229;28;20210;-65
2021/07/31 07:19:38;;;;;;;1999.90;999.90;;;;;;;29.25;57.14;95266.00;5007936;28;20203;-68
2021/07/31 07:22:06;;;;;;;1999.90;999.90;;;;;;;29.53;57.24;95262.69;5031952;27;20236;-70
2021/07/31 07:24:36;;;;;;;1999.90;999.90;;;;;;;29.74;53.78;95264.78;5047852;28;20205;-67
2021/07/31 07:27:04;;;;;;;1999.90;999.90;;;;;;;29.56;54.18;95264.50;5047442;28;20189;-68
2021/07/31 07:29:31;;;;;;;1999.90;999.90;;;;;;;29.62;55.41;95262.81;5047527;28;20217;-67
2021/07/31 07:31:58;;;;;;;1999.90;999.90;;;;;;;29.79;52.75;95266.94;5047383;28;20204;-68
2021/07/31 07:34:25;;;;;;;1999.90;999.90;;;;;;;30.00;53.19;95270.28;5047500;28;20204;-67
2021/07/31 07:36:52;;;;;;;1999.90;999.90;;;;;;;30.02;54.28;95265.25;5047000;28;20288;-68
2021/07/31 07:39:20;;;;;;;1999.90;999.90;;;;;;;30.18;53.39;95270.56;5047262;28;20225;-69
2021/07/31 07:41:48;;;;;;;1999.90;999.90;;;;;;;30.07;53.72;95275.44;5049444;28;20193;-70
2021/07/31 07:44:15;;;;;;;1999.90;999.90;;;;;;;30.25;53.16;95278.38;5047632;28;20205;-70
2021/07/31 07:46:42;;;;;;;1999.90;999.90;;;;;;;30.44;54.90;95268.69;5047353;28;20231;-69
2021/07/31 07:49:09;;;;;;;1999.90;999.90;;;;;;;30.02;54.04;95267.94;5047075;28;20247;-69
2021/07/31 07:51:39;;;;;;;1999.90;999.90;;;;;;;30.30;53.87;95267.88;5046688;28;20203;-67
2021/07/31 07:54:06;;;;;;;1999.90;999.90;;;;;;;30.51;52.64;95266.56;5046429;28;20316;-68
2021/07/31 07:56:33;;;;;;;1999.90;999.90;;;;;;;30.48;53.77;95266.66;5047033;28;20592;-68
2021/07/31 07:59:02;;;;;;;1999.90;999.90;;;;;;;30.51;52.75;95261.19;5047145;28;20199;-68
2021/07/31 08:01:31;;;;;;;1999.90;999.90;;;;;;;30.52;52.39;95257.34;5046711;28;20193;-68
2021/07/31 08:03:58;;;;;;;1999.90;999.90;;;;;;;30.74;52.45;95257.44;5046554;28;20205;-69
2021/07/31 08:06:25;;;;;;;1999.90;999.90;;;;;;;30.82;53.96;95264.09;5047096;28;20213;-69
2021/07/31 08:08:52;;;;;;;1999.90;999.90;;;;;;;31.04;53.77;95258.84;5046783;28;20220;-69
2021/07/31 08:11:19;;;;;;;1999.90;999.90;;;;;;;31.21;50.73;95254.84;5046690;28;20189;-69
2021/07/31 08:13:47;;;;;;;1999.90;999.90;;;;;;;31.28;51.81;95249.28;5046658;28;20204;-68
2021/07/31 08:16:15;;;;;;;1999.90;999.90;;;;;;;31.32;52.06;95246.47;5046548;28;20200;-69
2021/07/31 08:18:42;;;;;;;1999.90;999.90;;;;;;;31.45;50.57;95250.59;5046665;28;20641;-69
2021/07/31 08:21:09;;;;;;;1999.90;999.90;;;;;;;31.55;50.05;95244.13;5046536;28;20236;-70
2021/07/31 08:23:37;;;;;;;1999.90;999.90;;;;;;;31.70;48.17;95233.66;5046442;28;20198;-69
2021/07/31 08:26:08;;;;;;;1999.90;999.90;;;;;;;31.65;49.35;95242.28;5046523;28;20201;-69
2021/07/31 08:28:35;;;;;;;1999.90;999.90;;;;;;;31.67;48.59;95239.94;5046437;28;20312;-69
2021/07/31 08:31:02;;;;;;;1999.90;999.90;;;;;;;31.80;47.28;95237.19;5046995;28;20205;-68
2021/07/31 08:33:33;;;;;;;1999.90;999.90;;;;;;;32.04;45.08;95238.22;5046925;28;20205;-69
2021/07/31 08:36:00;;;;;;;1999.90;999.90;;;;;;;32.06;44.75;95238.56;5046241;28;20190;-69
2021/07/31 08:38:28;;;;;;;1999.90;999.90;;;;;;;32.37;43.19;95239.38;5046380;28;20197;-70
2021/07/31 08:40:55;;;;;;;1999.90;999.90;;;;;;;32.39;46.02;95233.53;5046265;28;20688;-69
2021/07/31 08:43:22;;;;;;;1999.90;999.90;;;;;;;32.57;45.93;95230.19;5046545;28;20200;-68
2021/07/31 08:45:51;;;;;;;1999.90;999.90;;;;;;;32.48;46.37;95234.31;5046168;28;20205;-69
2021/07/31 08:48:19;;;;;;;1999.90;999.90;;;;;;;32.48;48.13;95228.19;5046199;28;20225;-68
2021/07/31 08:50:50;;;;;;;1999.90;999.90;;;;;;;32.76;48.12;95229.84;5046228;28;20630;-69
2021/07/31 08:53:17;;;;;;;1999.90;999.90;;;;;;;32.69;47.18;95227.41;5046357;28;20200;-69
2021/07/31 08:55:44;;;;;;;1999.90;999.90;;;;;;;32.50;46.85;95217.75;5046149;28;20201;-69
2021/07/31 08:58:11;;;;;;;1999.90;999.90;;;;;;;32.74;46.38;95221.44;5046198;28;20203;-69
2021/07/31 09:00:39;;;;;;;1999.90;999.90;;;;;;;33.08;44.83;95209.72;5046067;28;20198;-69
2021/07/31 09:03:06;;;;;;;1999.90;999.90;;;;;;;33.17;43.40;95209.78;5045986;28;20442;-68
2021/07/31 09:05:34;;;;;;;1999.90;999.90;;;;;;;33.07;43.46;95210.19;5047471;28;20199;-69
2021/07/31 09:08:04;;;;;;;1999.90;999.90;;;;;;;32.92;46.41;95207.31;5049347;28;20203;-69
2021/07/31 09:10:32;;;;;;;1999.90;999.90;;;;;;;33.17;47.26;95203.63;5049277;28;20201;-69
2021/07/31 09:13:01;;;;;;;1999.90;999.90;;;;;;;33.50;46.03;95198.41;5049649;28;20209;-69
2021/07/31 09:15:34;;;;;;;1999.90;999.90;;;;;;;33.65;44.83;95207.38;5049183;28;20202;-69
2021/07/31 09:18:26;;;;;;;1999.90;999.90;;;;;;;33.69;45.99;95208.00;5049125;28;20273;-70
2021/07/31 09:21:01;;;;;;;1999.90;999.90;;;;;;;33.68;44.48;95203.81;5049195;28;20182;-69
2021/07/31 09:23:47;;;;;;;1999.90;999.90;;;;;;;33.95;43.08;95203.78;5049114;28;20197;-68
2021/07/31 09:26:18;;;;;;;1999.90;999.90;;;;;;;34.10;42.31;95196.56;5049412;28;20565;-68
2021/07/31 09:28:45;;;;;;;1999.90;999.90;;;;;;;34.26;42.24;95194.75;5059875;28;20276;-69
2021/07/31 09:31:17;;;;;;;1999.90;999.90;;;;;;;34.48;42.00;95192.56;5069257;28;20196;-71
2021/07/31 09:33:46;;;;;;;1999.90;999.90;;;;;;;34.83;41.15;95187.47;5069352;28;20188;-75
2021/07/31 09:36:15;;;;;;;1999.90;999.90;;;;;;;34.66;41.71;95183.66;5069511;28;20580;-71
2021/07/31 09:38:45;;;;;;;1999.90;999.90;;;;;;;34.84;40.44;95180.88;5055850;28;20241;-71
2021/07/31 09:41:34;;;;;;;1999.90;999.90;;;;;;;34.73;40.93;95180.63;5048735;28;20205;-71
2021/07/31 09:44:09;;;;;;;1999.90;999.90;;;;;;;34.67;39.28;95183.16;5048342;28;20225;-70
2021/07/31 09:46:39;;;;;;;1999.90;999.90;;;;;;;34.76;40.34;95179.72;5047661;28;20189;-72
2021/07/31 09:49:08;;;;;;;1999.90;999.90;;;;;;;35.08;36.93;95173.50;5047175;28;20228;-71
2021/07/31 09:51:37;;;;;;;1999.90;999.90;;;;;;;35.20;37.88;95169.88;5047342;28;20205;-70
2021/07/31 09:54:07;;;;;;;1999.90;999.90;;;;;;;35.32;38.42;95162.69;5047504;28;20205;-71
2021/07/31 09:56:41;;;;;;;1999.90;999.90;;;;;;;35.43;38.30;95160.22;5047535;28;20660;-71
2021/07/31 09:59:10;;;;;;;1999.90;999.90;;;;;;;35.60;38.56;95161.28;5048428;28;20181;-71
2021/07/31 10:01:38;;;;;;;1999.90;999.90;;;;;;;35.90;36.62;95158.63;5048690;28;20654;-71
2021/07/31 10:04:06;;;;;;;1999.90;999.90;;;;;;;35.99;38.92;95145.72;5048521;28;20201;-70
2021/07/31 10:06:34;;;;;;;1999.90;999.90;;;;;;;35.82;38.12;95148.16;5048557;28;20240;-71
2021/07/31 10:09:04;;;;;;;1999.90;999.90;;;;;;;35.81;37.15;95148.63;5048513;28;20225;-71
2021/07/31 10:11:33;;;;;;;1999.90;999.90;;;;;;;35.53;37.37;95137.28;5048269;28;20276;-71
2021/07/31 10:14:03;;;;;;;1999.90;999.90;;;;;;;35.73;38.87;95147.50;5048589;28;20204;-71
2021/07/31 10:16:31;;;;;;;1999.90;999.90;;;;;;;36.06;37.01;95145.38;5048163;28;20618;-71
2021/07/31 10:19:03;;;;;;;1999.90;999.90;;;;;;;36.35;36.38;95135.72;5048310;28;20626;-71
2021/07/31 10:21:33;;;;;;;1999.90;999.90;;;;;;;36.19;36.37;95137.72;5048240;28;20240;-72
2021/07/31 10:24:05;;;;;;;1999.90;999.90;;;;;;;36.34;36.13;95134.97;5048505;28;20202;-71
2021/07/31 10:26:34;;;;;;;1999.90;999.90;;;;;;;36.66;36.02;95130.53;5048646;28;20296;-72
2021/07/31 10:29:35;;;;;;;1999.90;999.90;;;;;;;36.89;34.26;95129.59;5048425;28;20257;-72
2021/07/31 10:32:40;;;;;;;1999.90;999.90;;;;;;;37.28;34.76;95129.31;5042177;28;20201;-71
2021/07/31 10:35:23;;;;;;;1999.90;999.90;;;;;;;37.42;33.83;95129.22;5048262;28;20284;-72
2021/07/31 10:37:50;;;;;;;1999.90;999.90;;;;;;;37.54;31.66;95119.28;5048619;28;20189;-73
2021/07/31 10:40:54;;;;;;;1999.90;999.90;;;;;;;37.62;29.58;95116.88;5048337;28;20212;-72
2021/07/31 10:43:23;;;;;;;1999.90;999.90;;;;;;;37.49;28.64;95120.69;5048431;28;20212;-71
2021/07/31 10:45:51;;;;;;;1999.90;999.90;;;;;;;37.53;29.68;95117.00;5048665;28;20288;-73
2021/07/31 10:48:35;;;;;;;1999.90;999.90;;;;;;;37.67;28.29;95114.22;5048364;28;20269;-71
2021/07/31 10:51:02;;;;;;;1999.90;999.90;;;;;;;37.76;29.95;95107.91;5048365;28;20217;-72
2021/07/31 10:53:49;;;;;;;1999.90;999.90;;;;;;;37.73;29.60;95106.13;5048226;28;20361;-72
2021/07/31 10:56:17;;;;;;;1999.90;999.90;;;;;;;37.75;28.61;95103.69;5047510;28;20202;-72
2021/07/31 10:59:19;;;;;;;1999.90;999.90;;;;;;;37.72;28.64;95108.09;5047747;28;20283;-72
2021/07/31 11:01:47;;;;;;;1999.90;999.90;;;;;;;37.85;30.08;95105.75;5047856;28;20739;-72